sensor_id;sensor_type;location;lat;lon;timestamp;P1;durP1;ratioP1;P2;durP2;ratioP2
66595;SDS011;59017;49.252;18.838;2022-09-09T00:04:21;2.95;;;2.20;;
66595;SDS011;59017;49.252;18.838;2022-09-09T00:07:54;6.35;;;2.20;;
66595;SDS011;59017;49.252;18.838;2022-09-09T00:10:09;2.65;;;1.95;;
66595;SDS011;59017;49.252;18.838;2022-09-09T00:16:03;3.80;;;2.17;;
66595;SDS011;59017;49.252;18.838;2022-09-09T00:21:17;3.17;;;1.88;;
66595;SDS011;59017;49.252;18.838;2022-09-09T00:23:50;4.38;;;2.10;;
66595;SDS011;59017;49.252;18.838;2022-09-09T00:31:54;4.70;;;1.92;;
66595;SDS011;59017;49.252;18.838;2022-09-09T00:34:25;4.93;;;2.10;;
66595;SDS011;59017;49.252;18.838;2022-09-09T00:36:52;3.08;;;2.10;;
66595;SDS011;59017;49.252;18.838;2022-09-09T00:46:04;3.28;;;2.00;;
66595;SDS011;59017;49.252;18.838;2022-09-09T00:48:14;6.10;;;1.75;;
66595;SDS011;59017;49.252;18.838;2022-09-09T00:58:35;2.65;;;2.00;;
66595;SDS011;59017;49.252;18.838;2022-09-09T01:01:11;2.95;;;2.20;;
66595;SDS011;59017;49.252;18.838;2022-09-09T01:03:53;3.60;;;1.67;;
66595;SDS011;59017;49.252;18.838;2022-09-09T01:12:01;2.38;;;1.60;;
66595;SDS011;59017;49.252;18.838;2022-09-09T01:17:48;3.00;;;1.98;;
66595;SDS011;59017;49.252;18.838;2022-09-09T01:27:51;5.78;;;1.75;;
66595;SDS011;59017;49.252;18.838;2022-09-09T01:30:20;3.28;;;1.83;;
66595;SDS011;59017;49.252;18.838;2022-09-09T01:32:47;2.08;;;1.48;;
66595;SDS011;59017;49.252;18.838;2022-09-09T01:36:03;2.97;;;1.60;;
66595;SDS011;59017;49.252;18.838;2022-09-09T01:38:13;3.53;;;1.77;;
66595;SDS011;59017;49.252;18.838;2022-09-09T01:40:39;2.97;;;1.80;;
66595;SDS011;59017;49.252;18.838;2022-09-09T01:43:05;3.35;;;1.58;;
66595;SDS011;59017;49.252;18.838;2022-09-09T01:45:32;4.28;;;1.70;;
66595;SDS011;59017;49.252;18.838;2022-09-09T01:47:59;2.05;;;1.60;;
66595;SDS011;59017;49.252;18.838;2022-09-09T01:50:25;2.70;;;1.60;;
66595;SDS011;59017;49.252;18.838;2022-09-09T01:52:52;8.02;;;1.70;;
66595;SDS011;59017;49.252;18.838;2022-09-09T02:00:36;4.40;;;2.03;;
66595;SDS011;59017;49.252;18.838;2022-09-09T02:03:11;8.38;;;1.60;;
66595;SDS011;59017;49.252;18.838;2022-09-09T02:06:05;3.38;;;1.75;;
66595;SDS011;59017;49.252;18.838;2022-09-09T02:08:55;3.80;;;1.42;;
66595;SDS011;59017;49.252;18.838;2022-09-09T02:11:23;3.88;;;1.85;;
66595;SDS011;59017;49.252;18.838;2022-09-09T02:13:55;2.13;;;1.30;;
66595;SDS011;59017;49.252;18.838;2022-09-09T02:16:30;3.97;;;1.40;;
66595;SDS011;59017;49.252;18.838;2022-09-09T02:19:20;1.95;;;1.60;;
66595;SDS011;59017;49.252;18.838;2022-09-09T02:21:51;5.20;;;1.95;;
66595;SDS011;59017;49.252;18.838;2022-09-09T02:24:20;4.65;;;1.55;;
66595;SDS011;59017;49.252;18.838;2022-09-09T02:26:47;2.47;;;1.70;;
66595;SDS011;59017;49.252;18.838;2022-09-09T02:29:18;4.55;;;1.50;;
66595;SDS011;59017;49.252;18.838;2022-09-09T02:31:57;1.77;;;1.35;;
66595;SDS011;59017;49.252;18.838;2022-09-09T02:36:54;3.28;;;1.40;;
66595;SDS011;59017;49.252;18.838;2022-09-09T02:39:22;5.35;;;1.60;;
66595;SDS011;59017;49.252;18.838;2022-09-09T02:41:47;3.60;;;1.85;;
66595;SDS011;59017;49.252;18.838;2022-09-09T02:44:14;3.28;;;1.38;;
66595;SDS011;59017;49.252;18.838;2022-09-09T02:51:56;3.65;;;1.70;;
66595;SDS011;59017;49.252;18.838;2022-09-09T02:54:30;4.13;;;1.70;;
66595;SDS011;59017;49.252;18.838;2022-09-09T02:57:08;3.45;;;1.92;;
66595;SDS011;59017;49.252;18.838;2022-09-09T02:59:38;4.60;;;1.85;;
66595;SDS011;59017;49.252;18.838;2022-09-09T03:02:04;3.38;;;1.80;;
66595;SDS011;59017;49.252;18.838;2022-09-09T03:04:30;3.08;;;1.80;;
66595;SDS011;59017;49.252;18.838;2022-09-09T03:06:56;5.05;;;1.50;;
66595;SDS011;59017;49.252;18.838;2022-09-09T03:09:22;3.33;;;1.60;;
66595;SDS011;59017;49.252;18.838;2022-09-09T03:11:48;5.03;;;1.70;;
66595;SDS011;59017;49.252;18.838;2022-09-09T03:14:14;4.97;;;1.70;;
66595;SDS011;59017;49.252;18.838;2022-09-09T03:16:40;3.65;;;1.58;;
66595;SDS011;59017;49.252;18.838;2022-09-09T03:19:08;3.30;;;1.67;;
66595;SDS011;59017;49.252;18.838;2022-09-09T03:21:33;4.25;;;1.75;;
66595;SDS011;59017;49.252;18.838;2022-09-09T03:23:59;1.98;;;1.70;;
66595;SDS011;59017;49.252;18.838;2022-09-09T03:26:24;4.60;;;2.00;;
66595;SDS011;59017;49.252;18.838;2022-09-09T03:28:50;3.90;;;1.63;;
66595;SDS011;59017;49.252;18.838;2022-09-09T03:31:16;4.10;;;1.65;;
66595;SDS011;59017;49.252;18.838;2022-09-09T03:33:42;6.10;;;1.70;;
66595;SDS011;59017;49.252;18.838;2022-09-09T03:36:07;3.13;;;1.90;;
66595;SDS011;59017;49.252;18.838;2022-09-09T03:38:35;5.00;;;1.88;;
66595;SDS011;59017;49.252;18.838;2022-09-09T03:41:01;2.38;;;1.58;;
66595;SDS011;59017;49.252;18.838;2022-09-09T03:43:27;6.68;;;1.85;;
66595;SDS011;59017;49.252;18.838;2022-09-09T03:45:53;5.35;;;1.90;;
66595;SDS011;59017;49.252;18.838;2022-09-09T03:48:22;6.75;;;2.00;;
66595;SDS011;59017;49.252;18.838;2022-09-09T03:50:48;8.55;;;2.10;;
66595;SDS011;59017;49.252;18.838;2022-09-09T03:53:16;5.20;;;2.13;;
66595;SDS011;59017;49.252;18.838;2022-09-09T03:55:48;3.53;;;2.10;;
66595;SDS011;59017;49.252;18.838;2022-09-09T03:58:18;3.83;;;1.80;;
66595;SDS011;59017;49.252;18.838;2022-09-09T04:00:52;7.28;;;1.98;;
66595;SDS011;59017;49.252;18.838;2022-09-09T04:03:28;11.02;;;2.38;;
66595;SDS011;59017;49.252;18.838;2022-09-09T04:05:54;4.60;;;2.20;;
66595;SDS011;59017;49.252;18.838;2022-09-09T04:08:21;4.28;;;2.15;;
66595;SDS011;59017;49.252;18.838;2022-09-09T04:10:48;2.88;;;1.90;;
66595;SDS011;59017;49.252;18.838;2022-09-09T04:13:14;4.97;;;2.03;;
66595;SDS011;59017;49.252;18.838;2022-09-09T04:15:42;3.83;;;1.85;;
66595;SDS011;59017;49.252;18.838;2022-09-09T04:18:08;2.97;;;1.83;;
66595;SDS011;59017;49.252;18.838;2022-09-09T04:20:37;7.20;;;1.90;;
66595;SDS011;59017;49.252;18.838;2022-09-09T04:23:03;4.57;;;1.92;;
66595;SDS011;59017;49.252;18.838;2022-09-09T04:25:30;2.75;;;1.80;;
66595;SDS011;59017;49.252;18.838;2022-09-09T04:27:56;4.68;;;2.00;;
66595;SDS011;59017;49.252;18.838;2022-09-09T04:30:23;2.42;;;1.60;;
66595;SDS011;59017;49.252;18.838;2022-09-09T04:32:50;11.27;;;1.80;;
66595;SDS011;59017;49.252;18.838;2022-09-09T04:35:18;5.05;;;2.08;;
66595;SDS011;59017;49.252;18.838;2022-09-09T04:37:45;6.25;;;1.98;;
66595;SDS011;59017;49.252;18.838;2022-09-09T04:40:12;4.43;;;2.03;;
66595;SDS011;59017;49.252;18.838;2022-09-09T04:42:37;3.47;;;2.05;;
66595;SDS011;59017;49.252;18.838;2022-09-09T04:45:04;2.60;;;1.95;;
66595;SDS011;59017;49.252;18.838;2022-09-09T04:47:31;2.92;;;1.60;;
66595;SDS011;59017;49.252;18.838;2022-09-09T04:49:57;6.20;;;2.13;;
66595;SDS011;59017;49.252;18.838;2022-09-09T04:52:23;7.10;;;2.42;;
66595;SDS011;59017;49.252;18.838;2022-09-09T04:54:48;44.13;;;8.50;;
66595;SDS011;59017;49.252;18.838;2022-09-09T04:57:13;61.25;;;11.27;;
66595;SDS011;59017;49.252;18.838;2022-09-09T04:59:39;91.95;;;14.88;;
66595;SDS011;59017;49.252;18.838;2022-09-09T05:02:05;82.45;;;14.95;;
66595;SDS011;59017;49.252;18.838;2022-09-09T05:04:31;88.60;;;14.73;;
66595;SDS011;59017;49.252;18.838;2022-09-09T05:06:58;97.90;;;17.17;;
66595;SDS011;59017;49.252;18.838;2022-09-09T05:09:23;90.35;;;16.88;;
66595;SDS011;59017;49.252;18.838;2022-09-09T05:11:49;111.90;;;20.70;;
66595;SDS011;59017;49.252;18.838;2022-09-09T05:14:15;123.85;;;22.73;;
66595;SDS011;59017;49.252;18.838;2022-09-09T05:16:41;89.40;;;17.88;;
66595;SDS011;59017;49.252;18.838;2022-09-09T05:19:09;97.32;;;17.63;;
66595;SDS011;59017;49.252;18.838;2022-09-09T05:21:34;91.25;;;15.85;;
66595;SDS011;59017;49.252;18.838;2022-09-09T05:24:00;75.13;;;15.38;;
66595;SDS011;59017;49.252;18.838;2022-09-09T05:26:26;64.53;;;13.70;;
66595;SDS011;59017;49.252;18.838;2022-09-09T05:28:51;52.38;;;12.07;;
66595;SDS011;59017;49.252;18.838;2022-09-09T05:31:17;60.30;;;12.60;;
66595;SDS011;59017;49.252;18.838;2022-09-09T05:33:44;47.40;;;11.18;;
66595;SDS011;59017;49.252;18.838;2022-09-09T05:36:14;50.83;;;10.70;;
66595;SDS011;59017;49.252;18.838;2022-09-09T05:38:42;38.22;;;8.60;;
66595;SDS011;59017;49.252;18.838;2022-09-09T05:41:08;36.80;;;8.43;;
66595;SDS011;59017;49.252;18.838;2022-09-09T05:43:36;41.92;;;8.60;;
66595;SDS011;59017;49.252;18.838;2022-09-09T05:46:03;31.98;;;8.15;;
66595;SDS011;59017;49.252;18.838;2022-09-09T05:48:40;32.55;;;7.88;;
66595;SDS011;59017;49.252;18.838;2022-09-09T05:51:11;32.20;;;7.57;;
66595;SDS011;59017;49.252;18.838;2022-09-09T05:53:40;26.17;;;7.07;;
66595;SDS011;59017;49.252;18.838;2022-09-09T05:56:08;29.10;;;6.10;;
66595;SDS011;59017;49.252;18.838;2022-09-09T05:58:39;19.20;;;5.53;;
66595;SDS011;59017;49.252;18.838;2022-09-09T06:01:09;21.35;;;5.07;;
66595;SDS011;59017;49.252;18.838;2022-09-09T06:03:35;13.32;;;4.35;;
66595;SDS011;59017;49.252;18.838;2022-09-09T06:06:03;12.15;;;4.57;;
66595;SDS011;59017;49.252;18.838;2022-09-09T06:08:30;12.25;;;4.25;;
66595;SDS011;59017;49.252;18.838;2022-09-09T06:11:03;8.88;;;3.70;;
66595;SDS011;59017;49.252;18.838;2022-09-09T06:13:30;18.63;;;4.10;;
66595;SDS011;59017;49.252;18.838;2022-09-09T06:15:56;10.00;;;3.72;;
66595;SDS011;59017;49.252;18.838;2022-09-09T06:18:23;11.15;;;3.70;;
66595;SDS011;59017;49.252;18.838;2022-09-09T06:20:53;9.98;;;3.45;;
66595;SDS011;59017;49.252;18.838;2022-09-09T06:23:23;6.68;;;2.90;;
66595;SDS011;59017;49.252;18.838;2022-09-09T06:25:49;11.23;;;3.40;;
66595;SDS011;59017;49.252;18.838;2022-09-09T06:28:15;7.93;;;3.00;;
66595;SDS011;59017;49.252;18.838;2022-09-09T06:30:42;4.80;;;3.20;;
66595;SDS011;59017;49.252;18.838;2022-09-09T06:33:08;5.85;;;3.00;;
66595;SDS011;59017;49.252;18.838;2022-09-09T06:35:34;4.82;;;2.65;;
66595;SDS011;59017;49.252;18.838;2022-09-09T06:38:00;7.88;;;2.85;;
66595;SDS011;59017;49.252;18.838;2022-09-09T06:40:25;5.97;;;2.92;;
66595;SDS011;59017;49.252;18.838;2022-09-09T06:42:51;8.27;;;3.22;;
66595;SDS011;59017;49.252;18.838;2022-09-09T06:45:16;5.82;;;2.63;;
66595;SDS011;59017;49.252;18.838;2022-09-09T06:47:42;9.23;;;3.00;;
66595;SDS011;59017;49.252;18.838;2022-09-09T06:50:08;5.25;;;2.60;;
66595;SDS011;59017;49.252;18.838;2022-09-09T06:52:36;4.80;;;2.60;;
66595;SDS011;59017;49.252;18.838;2022-09-09T06:55:02;5.90;;;3.30;;
66595;SDS011;59017;49.252;18.838;2022-09-09T06:57:28;7.57;;;2.53;;
66595;SDS011;59017;49.252;18.838;2022-09-09T06:59:53;5.03;;;2.58;;
66595;SDS011;59017;49.252;18.838;2022-09-09T07:02:19;6.38;;;2.38;;
66595;SDS011;59017;49.252;18.838;2022-09-09T07:04:45;5.45;;;2.58;;
66595;SDS011;59017;49.252;18.838;2022-09-09T07:07:10;3.78;;;2.25;;
66595;SDS011;59017;49.252;18.838;2022-09-09T07:09:38;4.43;;;2.20;;
66595;SDS011;59017;49.252;18.838;2022-09-09T07:12:04;7.38;;;2.42;;
66595;SDS011;59017;49.252;18.838;2022-09-09T07:14:31;4.32;;;2.10;;
66595;SDS011;59017;49.252;18.838;2022-09-09T07:16:57;4.68;;;2.38;;
66595;SDS011;59017;49.252;18.838;2022-09-09T07:19:23;4.32;;;2.20;;
66595;SDS011;59017;49.252;18.838;2022-09-09T07:21:48;6.35;;;2.45;;
66595;SDS011;59017;49.252;18.838;2022-09-09T07:24:14;4.95;;;2.53;;
66595;SDS011;59017;49.252;18.838;2022-09-09T07:26:40;5.50;;;2.30;;
66595;SDS011;59017;49.252;18.838;2022-09-09T07:29:06;4.07;;;2.00;;
66595;SDS011;59017;49.252;18.838;2022-09-09T07:31:33;5.05;;;2.10;;
66595;SDS011;59017;49.252;18.838;2022-09-09T07:34:01;6.70;;;2.50;;
66595;SDS011;59017;49.252;18.838;2022-09-09T07:36:35;6.10;;;2.25;;
66595;SDS011;59017;49.252;18.838;2022-09-09T07:39:04;3.95;;;2.45;;
66595;SDS011;59017;49.252;18.838;2022-09-09T07:41:42;4.80;;;2.15;;
66595;SDS011;59017;49.252;18.838;2022-09-09T07:44:10;9.60;;;2.85;;
66595;SDS011;59017;49.252;18.838;2022-09-09T07:46:38;6.15;;;2.20;;
66595;SDS011;59017;49.252;18.838;2022-09-09T07:49:04;2.97;;;2.28;;
66595;SDS011;59017;49.252;18.838;2022-09-09T07:51:34;3.70;;;2.30;;
66595;SDS011;59017;49.252;18.838;2022-09-09T07:54:04;4.03;;;2.10;;
66595;SDS011;59017;49.252;18.838;2022-09-09T07:56:31;4.80;;;2.40;;
66595;SDS011;59017;49.252;18.838;2022-09-09T07:58:57;6.70;;;2.40;;
66595;SDS011;59017;49.252;18.838;2022-09-09T08:01:25;3.55;;;2.30;;
66595;SDS011;59017;49.252;18.838;2022-09-09T08:03:53;5.03;;;2.22;;
66595;SDS011;59017;49.252;18.838;2022-09-09T08:06:27;7.65;;;2.88;;
66595;SDS011;59017;49.252;18.838;2022-09-09T08:08:54;5.63;;;2.60;;
66595;SDS011;59017;49.252;18.838;2022-09-09T08:11:21;4.80;;;2.53;;
66595;SDS011;59017;49.252;18.838;2022-09-09T08:13:49;6.30;;;2.85;;
66595;SDS011;59017;49.252;18.838;2022-09-09T08:16:16;3.45;;;2.50;;
66595;SDS011;59017;49.252;18.838;2022-09-09T08:21:13;6.35;;;2.70;;
66595;SDS011;59017;49.252;18.838;2022-09-09T08:23:42;8.25;;;2.50;;
66595;SDS011;59017;49.252;18.838;2022-09-09T08:26:14;4.25;;;2.65;;
66595;SDS011;59017;49.252;18.838;2022-09-09T08:28:48;3.05;;;2.40;;
66595;SDS011;59017;49.252;18.838;2022-09-09T08:31:17;7.07;;;2.70;;
66595;SDS011;59017;49.252;18.838;2022-09-09T08:33:47;4.40;;;2.40;;
66595;SDS011;59017;49.252;18.838;2022-09-09T08:36:15;4.25;;;2.15;;
66595;SDS011;59017;49.252;18.838;2022-09-09T08:38:42;3.83;;;2.40;;
66595;SDS011;59017;49.252;18.838;2022-09-09T08:44:07;2.92;;;2.15;;
66595;SDS011;59017;49.252;18.838;2022-09-09T08:55:22;3.45;;;2.00;;
66595;SDS011;59017;49.252;18.838;2022-09-09T08:58:00;2.83;;;1.90;;
66595;SDS011;59017;49.252;18.838;2022-09-09T09:03:41;3.20;;;1.80;;
66595;SDS011;59017;49.252;18.838;2022-09-09T09:11:43;3.90;;;1.70;;
66595;SDS011;59017;49.252;18.838;2022-09-09T09:17:02;3.65;;;1.95;;
66595;SDS011;59017;49.252;18.838;2022-09-09T09:19:32;2.33;;;1.80;;
66595;SDS011;59017;49.252;18.838;2022-09-09T09:22:02;3.15;;;1.80;;
66595;SDS011;59017;49.252;18.838;2022-09-09T09:32:40;2.10;;;1.73;;
66595;SDS011;59017;49.252;18.838;2022-09-09T09:35:12;2.70;;;1.73;;
66595;SDS011;59017;49.252;18.838;2022-09-09T09:37:39;2.17;;;1.67;;
66595;SDS011;59017;49.252;18.838;2022-09-09T09:43:17;2.60;;;1.70;;
66595;SDS011;59017;49.252;18.838;2022-09-09T09:45:45;2.03;;;1.60;;
66595;SDS011;59017;49.252;18.838;2022-09-09T09:48:11;1.90;;;1.60;;
66595;SDS011;59017;49.252;18.838;2022-09-09T09:53:28;2.30;;;1.70;;
66595;SDS011;59017;49.252;18.838;2022-09-09T09:56:00;3.38;;;1.88;;
66595;SDS011;59017;49.252;18.838;2022-09-09T10:03:59;3.75;;;1.70;;
66595;SDS011;59017;49.252;18.838;2022-09-09T10:06:30;3.75;;;1.88;;
66595;SDS011;59017;49.252;18.838;2022-09-09T10:09:03;3.90;;;1.60;;
66595;SDS011;59017;49.252;18.838;2022-09-09T10:19:29;2.13;;;1.65;;
66595;SDS011;59017;49.252;18.838;2022-09-09T10:22:04;3.10;;;1.70;;
66595;SDS011;59017;49.252;18.838;2022-09-09T10:30:16;2.00;;;1.50;;
66595;SDS011;59017;49.252;18.838;2022-09-09T10:36:10;2.47;;;1.40;;
66595;SDS011;59017;49.252;18.838;2022-09-09T10:38:40;1.90;;;1.27;;
66595;SDS011;59017;49.252;18.838;2022-09-09T10:44:49;3.10;;;1.30;;
66595;SDS011;59017;49.252;18.838;2022-09-09T10:57:43;2.40;;;1.20;;
66595;SDS011;59017;49.252;18.838;2022-09-09T11:00:56;1.42;;;1.10;;
66595;SDS011;59017;49.252;18.838;2022-09-09T11:03:04;2.00;;;1.20;;
66595;SDS011;59017;49.252;18.838;2022-09-09T11:08:20;3.90;;;1.30;;
66595;SDS011;59017;49.252;18.838;2022-09-09T11:11:02;4.43;;;1.10;;
66595;SDS011;59017;49.252;18.838;2022-09-09T11:19:04;2.25;;;1.20;;
66595;SDS011;59017;49.252;18.838;2022-09-09T11:21:53;3.92;;;1.30;;
66595;SDS011;59017;49.252;18.838;2022-09-09T11:32:40;1.48;;;1.15;;
66595;SDS011;59017;49.252;18.838;2022-09-09T11:38:08;1.45;;;1.13;;
66595;SDS011;59017;49.252;18.838;2022-09-09T11:40:56;1.10;;;1.00;;
66595;SDS011;59017;49.252;18.838;2022-09-09T11:43:43;2.10;;;1.10;;
66595;SDS011;59017;49.252;18.838;2022-09-09T11:46:11;1.67;;;1.27;;
66595;SDS011;59017;49.252;18.838;2022-09-09T11:56:25;1.65;;;1.20;;
66595;SDS011;59017;49.252;18.838;2022-09-09T11:59:02;3.67;;;1.25;;
66595;SDS011;59017;49.252;18.838;2022-09-09T12:01:43;2.03;;;1.27;;
66595;SDS011;59017;49.252;18.838;2022-09-09T12:04:15;1.98;;;1.10;;
66595;SDS011;59017;49.252;18.838;2022-09-09T12:06:49;1.40;;;1.30;;
66595;SDS011;59017;49.252;18.838;2022-09-09T12:09:30;2.13;;;1.30;;
66595;SDS011;59017;49.252;18.838;2022-09-09T12:17:46;2.00;;;1.02;;
66595;SDS011;59017;49.252;18.838;2022-09-09T12:25:26;4.03;;;1.20;;
66595;SDS011;59017;49.252;18.838;2022-09-09T12:28:04;2.00;;;1.10;;
66595;SDS011;59017;49.252;18.838;2022-09-09T12:30:41;3.45;;;1.00;;
66595;SDS011;59017;49.252;18.838;2022-09-09T12:33:36;1.20;;;1.05;;
66595;SDS011;59017;49.252;18.838;2022-09-09T12:36:04;2.58;;;1.10;;
66595;SDS011;59017;49.252;18.838;2022-09-09T12:38:38;2.75;;;1.00;;
66595;SDS011;59017;49.252;18.838;2022-09-09T12:41:05;1.77;;;1.10;;
66595;SDS011;59017;49.252;18.838;2022-09-09T12:43:31;1.70;;;1.00;;
66595;SDS011;59017;49.252;18.838;2022-09-09T12:45:58;1.92;;;1.10;;
66595;SDS011;59017;49.252;18.838;2022-09-09T12:48:38;2.13;;;1.10;;
66595;SDS011;59017;49.252;18.838;2022-09-09T12:51:19;1.65;;;0.98;;
66595;SDS011;59017;49.252;18.838;2022-09-09T12:53:50;1.65;;;0.98;;
66595;SDS011;59017;49.252;18.838;2022-09-09T12:56:20;1.40;;;1.08;;
66595;SDS011;59017;49.252;18.838;2022-09-09T13:01:34;2.35;;;1.13;;
66595;SDS011;59017;49.252;18.838;2022-09-09T13:04:00;1.45;;;0.90;;
66595;SDS011;59017;49.252;18.838;2022-09-09T13:06:26;2.15;;;1.05;;
66595;SDS011;59017;49.252;18.838;2022-09-09T13:08:54;2.25;;;1.33;;
66595;SDS011;59017;49.252;18.838;2022-09-09T13:11:26;2.75;;;1.00;;
66595;SDS011;59017;49.252;18.838;2022-09-09T13:13:53;3.58;;;1.13;;
66595;SDS011;59017;49.252;18.838;2022-09-09T13:16:22;1.88;;;1.00;;
66595;SDS011;59017;49.252;18.838;2022-09-09T13:18:55;2.38;;;1.00;;
66595;SDS011;59017;49.252;18.838;2022-09-09T13:21:30;1.65;;;1.00;;
66595;SDS011;59017;49.252;18.838;2022-09-09T13:23:57;1.38;;;1.13;;
66595;SDS011;59017;49.252;18.838;2022-09-09T13:26:28;1.73;;;1.00;;
66595;SDS011;59017;49.252;18.838;2022-09-09T13:28:55;1.83;;;1.20;;
66595;SDS011;59017;49.252;18.838;2022-09-09T13:31:33;2.97;;;1.40;;
66595;SDS011;59017;49.252;18.838;2022-09-09T13:34:22;4.22;;;1.27;;
66595;SDS011;59017;49.252;18.838;2022-09-09T13:37:01;1.95;;;1.02;;
66595;SDS011;59017;49.252;18.838;2022-09-09T13:39:30;3.05;;;0.90;;
66595;SDS011;59017;49.252;18.838;2022-09-09T13:41:58;1.88;;;1.20;;
66595;SDS011;59017;49.252;18.838;2022-09-09T13:44:28;1.45;;;1.00;;
66595;SDS011;59017;49.252;18.838;2022-09-09T13:47:03;1.60;;;0.90;;
66595;SDS011;59017;49.252;18.838;2022-09-09T13:49:49;1.75;;;1.00;;
66595;SDS011;59017;49.252;18.838;2022-09-09T13:52:15;5.25;;;1.00;;
66595;SDS011;59017;49.252;18.838;2022-09-09T13:54:47;1.02;;;0.80;;
66595;SDS011;59017;49.252;18.838;2022-09-09T13:59:44;1.58;;;0.93;;
66595;SDS011;59017;49.252;18.838;2022-09-09T14:02:10;1.10;;;0.82;;
66595;SDS011;59017;49.252;18.838;2022-09-09T14:04:35;1.02;;;0.90;;
66595;SDS011;59017;49.252;18.838;2022-09-09T14:07:01;2.20;;;1.08;;
66595;SDS011;59017;49.252;18.838;2022-09-09T14:09:28;1.88;;;1.05;;
66595;SDS011;59017;49.252;18.838;2022-09-09T14:11:53;1.17;;;0.80;;
66595;SDS011;59017;49.252;18.838;2022-09-09T14:14:20;0.70;;;0.70;;
66595;SDS011;59017;49.252;18.838;2022-09-09T14:16:45;5.20;;;1.08;;
66595;SDS011;59017;49.252;18.838;2022-09-09T14:19:11;1.00;;;0.80;;
66595;SDS011;59017;49.252;18.838;2022-09-09T14:21:37;0.88;;;0.77;;
66595;SDS011;59017;49.252;18.838;2022-09-09T14:24:02;1.15;;;0.80;;
66595;SDS011;59017;49.252;18.838;2022-09-09T14:26:28;3.28;;;1.05;;
66595;SDS011;59017;49.252;18.838;2022-09-09T14:28:54;0.80;;;0.80;;
66595;SDS011;59017;49.252;18.838;2022-09-09T14:31:20;1.27;;;1.00;;
66595;SDS011;59017;49.252;18.838;2022-09-09T14:33:46;1.05;;;0.80;;
66595;SDS011;59017;49.252;18.838;2022-09-09T14:36:11;1.30;;;1.00;;
66595;SDS011;59017;49.252;18.838;2022-09-09T14:38:38;2.67;;;0.98;;
66595;SDS011;59017;49.252;18.838;2022-09-09T14:41:05;1.13;;;0.88;;
66595;SDS011;59017;49.252;18.838;2022-09-09T14:43:31;1.45;;;0.80;;
66595;SDS011;59017;49.252;18.838;2022-09-09T14:45:58;1.85;;;0.90;;
66595;SDS011;59017;49.252;18.838;2022-09-09T14:48:30;2.38;;;0.70;;
66595;SDS011;59017;49.252;18.838;2022-09-09T14:50:56;1.52;;;0.90;;
66595;SDS011;59017;49.252;18.838;2022-09-09T14:53:21;1.27;;;1.00;;
66595;SDS011;59017;49.252;18.838;2022-09-09T14:55:47;1.63;;;0.82;;
66595;SDS011;59017;49.252;18.838;2022-09-09T14:58:13;1.27;;;0.77;;
66595;SDS011;59017;49.252;18.838;2022-09-09T15:00:38;1.20;;;0.90;;
66595;SDS011;59017;49.252;18.838;2022-09-09T15:03:04;1.40;;;1.05;;
66595;SDS011;59017;49.252;18.838;2022-09-09T15:05:29;2.85;;;1.00;;
66595;SDS011;59017;49.252;18.838;2022-09-09T15:07:56;2.65;;;1.23;;
66595;SDS011;59017;49.252;18.838;2022-09-09T15:10:23;2.95;;;1.00;;
66595;SDS011;59017;49.252;18.838;2022-09-09T15:12:49;0.80;;;0.80;;
66595;SDS011;59017;49.252;18.838;2022-09-09T15:15:14;1.85;;;1.00;;
66595;SDS011;59017;49.252;18.838;2022-09-09T15:17:40;2.10;;;1.00;;
66595;SDS011;59017;49.252;18.838;2022-09-09T15:20:06;1.48;;;1.10;;
66595;SDS011;59017;49.252;18.838;2022-09-09T15:22:33;1.98;;;0.95;;
66595;SDS011;59017;49.252;18.838;2022-09-09T15:24:59;2.67;;;0.95;;
66595;SDS011;59017;49.252;18.838;2022-09-09T15:27:25;1.52;;;0.90;;
66595;SDS011;59017;49.252;18.838;2022-09-09T15:29:50;3.10;;;1.05;;
66595;SDS011;59017;49.252;18.838;2022-09-09T15:32:16;1.83;;;1.08;;
66595;SDS011;59017;49.252;18.838;2022-09-09T15:34:42;0.75;;;0.68;;
66595;SDS011;59017;49.252;18.838;2022-09-09T15:37:11;2.92;;;1.15;;
66595;SDS011;59017;49.252;18.838;2022-09-09T15:39:39;1.77;;;1.00;;
66595;SDS011;59017;49.252;18.838;2022-09-09T15:42:05;1.90;;;0.80;;
66595;SDS011;59017;49.252;18.838;2022-09-09T15:44:39;1.23;;;0.90;;
66595;SDS011;59017;49.252;18.838;2022-09-09T15:47:10;1.67;;;1.00;;
66595;SDS011;59017;49.252;18.838;2022-09-09T15:49:37;2.30;;;1.20;;
66595;SDS011;59017;49.252;18.838;2022-09-09T15:52:03;1.58;;;1.10;;
66595;SDS011;59017;49.252;18.838;2022-09-09T15:54:33;3.53;;;1.27;;
66595;SDS011;59017;49.252;18.838;2022-09-09T15:57:01;1.77;;;0.80;;
66595;SDS011;59017;49.252;18.838;2022-09-09T15:59:30;1.85;;;0.98;;
66595;SDS011;59017;49.252;18.838;2022-09-09T16:01:56;2.47;;;1.00;;
66595;SDS011;59017;49.252;18.838;2022-09-09T16:04:24;4.25;;;1.00;;
66595;SDS011;59017;49.252;18.838;2022-09-09T16:06:55;1.15;;;1.05;;
66595;SDS011;59017;49.252;18.838;2022-09-09T16:09:23;2.70;;;1.00;;
66595;SDS011;59017;49.252;18.838;2022-09-09T16:11:49;1.48;;;1.15;;
66595;SDS011;59017;49.252;18.838;2022-09-09T16:14:16;2.15;;;1.20;;
66595;SDS011;59017;49.252;18.838;2022-09-09T16:16:42;1.08;;;0.88;;
66595;SDS011;59017;49.252;18.838;2022-09-09T16:19:09;3.40;;;1.30;;
66595;SDS011;59017;49.252;18.838;2022-09-09T16:21:47;1.75;;;1.17;;
66595;SDS011;59017;49.252;18.838;2022-09-09T16:24:15;2.40;;;1.33;;
66595;SDS011;59017;49.252;18.838;2022-09-09T16:26:44;2.13;;;1.20;;
66595;SDS011;59017;49.252;18.838;2022-09-09T16:29:15;3.78;;;1.13;;
66595;SDS011;59017;49.252;18.838;2022-09-09T16:31:42;2.47;;;1.30;;
66595;SDS011;59017;49.252;18.838;2022-09-09T16:34:08;3.97;;;1.10;;
66595;SDS011;59017;49.252;18.838;2022-09-09T16:36:35;3.25;;;1.33;;
66595;SDS011;59017;49.252;18.838;2022-09-09T16:39:03;2.47;;;1.38;;
66595;SDS011;59017;49.252;18.838;2022-09-09T16:41:31;1.88;;;1.20;;
66595;SDS011;59017;49.252;18.838;2022-09-09T16:43:58;1.55;;;1.10;;
66595;SDS011;59017;49.252;18.838;2022-09-09T16:46:25;0.98;;;0.90;;
66595;SDS011;59017;49.252;18.838;2022-09-09T16:48:52;3.28;;;1.15;;
66595;SDS011;59017;49.252;18.838;2022-09-09T16:51:25;3.28;;;1.20;;
66595;SDS011;59017;49.252;18.838;2022-09-09T16:53:53;2.75;;;1.30;;
66595;SDS011;59017;49.252;18.838;2022-09-09T16:56:20;2.95;;;1.30;;
66595;SDS011;59017;49.252;18.838;2022-09-09T16:58:50;3.20;;;1.63;;
66595;SDS011;59017;49.252;18.838;2022-09-09T17:01:23;3.35;;;1.40;;
66595;SDS011;59017;49.252;18.838;2022-09-09T17:03:53;3.42;;;1.50;;
66595;SDS011;59017;49.252;18.838;2022-09-09T17:06:20;1.80;;;1.15;;
66595;SDS011;59017;49.252;18.838;2022-09-09T17:08:46;3.83;;;1.65;;
66595;SDS011;59017;49.252;18.838;2022-09-09T17:11:17;2.97;;;1.33;;
66595;SDS011;59017;49.252;18.838;2022-09-09T17:13:44;2.20;;;1.50;;
66595;SDS011;59017;49.252;18.838;2022-09-09T17:16:11;2.95;;;1.50;;
66595;SDS011;59017;49.252;18.838;2022-09-09T17:18:38;2.80;;;1.50;;
66595;SDS011;59017;49.252;18.838;2022-09-09T17:21:08;3.63;;;1.50;;
66595;SDS011;59017;49.252;18.838;2022-09-09T17:23:38;2.33;;;1.35;;
66595;SDS011;59017;49.252;18.838;2022-09-09T17:26:07;3.17;;;1.90;;
66595;SDS011;59017;49.252;18.838;2022-09-09T17:28:39;2.85;;;1.63;;
66595;SDS011;59017;49.252;18.838;2022-09-09T17:31:06;4.30;;;1.63;;
66595;SDS011;59017;49.252;18.838;2022-09-09T17:33:33;4.78;;;1.60;;
66595;SDS011;59017;49.252;18.838;2022-09-09T17:36:01;2.78;;;1.63;;
66595;SDS011;59017;49.252;18.838;2022-09-09T17:38:31;6.68;;;2.00;;
66595;SDS011;59017;49.252;18.838;2022-09-09T17:41:04;3.42;;;1.77;;
66595;SDS011;59017;49.252;18.838;2022-09-09T17:43:36;2.90;;;1.60;;